sensor_id;sensor_type;location;lat;lon;timestamp;P1;durP1;ratioP1;P2;durP2;ratioP2
68319;SDS011;55168;51.120;17.024;2024-02-14T00:00:00;31.1;;;21.4;;
68319;SDS011;55168;51.120;17.024;2024-02-14T00:01:00;31.1;;;21.4;;
68319;SDS011;55168;51.120;17.024;2024-02-14T00:02:00;32.6;;;21.0;;
68319;SDS011;55168;51.120;17.024;2024-02-14T00:03:00;32.6;;;21.0;;
68319;SDS011;55168;51.120;17.024;2024-02-14T00:04:00;32.6;;;21.0;;
68319;SDS011;55168;51.120;17.024;2024-02-14T00:05:00;32.6;;;21.0;;
68319;SDS011;55168;51.120;17.024;2024-02-14T00:06:00;32.6;;;21.0;;
68319;SDS011;55168;51.120;17.024;2024-02-14T00:07:00;28.9;;;20.4;;
68319;SDS011;55168;51.120;17.024;2024-02-14T00:08:00;28.9;;;20.4;;
68319;SDS011;55168;51.120;17.024;2024-02-14T00:09:00;28.9;;;20.4;;
68319;SDS011;55168;51.120;17.024;2024-02-14T00:10:00;28.9;;;20.4;;
68319;SDS011;55168;51.120;17.024;2024-02-14T00:11:00;28.9;;;20.4;;
68319;SDS011;55168;51.120;17.024;2024-02-14T00:12:00;30.2;;;21.0;;
68319;SDS011;55168;51.120;17.024;2024-02-14T00:13:00;30.2;;;21.0;;
68319;SDS011;55168;51.120;17.024;2024-02-14T00:14:00;30.2;;;21.0;;
68319;SDS011;55168;51.120;17.024;2024-02-14T00:15:00;30.2;;;21.0;;
68319;SDS011;55168;51.120;17.024;2024-02-14T00:16:01;30.2;;;21.0;;
68319;SDS011;55168;51.120;17.024;2024-02-14T00:17:00;29.6;;;20.6;;
68319;SDS011;55168;51.120;17.024;2024-02-14T00:18:00;29.6;;;20.6;;
68319;SDS011;55168;51.120;17.024;2024-02-14T00:19:00;29.6;;;20.6;;
68319;SDS011;55168;51.120;17.024;2024-02-14T00:20:02;29.6;;;20.6;;
68319;SDS011;55168;51.120;17.024;2024-02-14T00:21:00;29.6;;;20.6;;
68319;SDS011;55168;51.120;17.024;2024-02-14T00:22:00;32.8;;;21.0;;
68319;SDS011;55168;51.120;17.024;2024-02-14T00:23:00;32.8;;;21.0;;
68319;SDS011;55168;51.120;17.024;2024-02-14T00:24:00;32.8;;;21.0;;
68319;SDS011;55168;51.120;17.024;2024-02-14T00:25:00;32.8;;;21.0;;
68319;SDS011;55168;51.120;17.024;2024-02-14T00:26:00;32.8;;;21.0;;
68319;SDS011;55168;51.120;17.024;2024-02-14T00:27:00;31.0;;;20.9;;
68319;SDS011;55168;51.120;17.024;2024-02-14T00:28:00;31.0;;;20.9;;
68319;SDS011;55168;51.120;17.024;2024-02-14T00:29:00;31.0;;;20.9;;
68319;SDS011;55168;51.120;17.024;2024-02-14T00:30:00;31.0;;;20.9;;
68319;SDS011;55168;51.120;17.024;2024-02-14T00:31:00;31.0;;;20.9;;
68319;SDS011;55168;51.120;17.024;2024-02-14T00:32:00;28.6;;;20.5;;
68319;SDS011;55168;51.120;17.024;2024-02-14T00:33:00;28.6;;;20.5;;
68319;SDS011;55168;51.120;17.024;2024-02-14T00:34:00;28.6;;;20.5;;
68319;SDS011;55168;51.120;17.024;2024-02-14T00:35:00;28.6;;;20.5;;
68319;SDS011;55168;51.120;17.024;2024-02-14T00:36:00;28.6;;;20.5;;
68319;SDS011;55168;51.120;17.024;2024-02-14T00:37:00;35.1;;;22.8;;
68319;SDS011;55168;51.120;17.024;2024-02-14T00:38:00;35.1;;;22.8;;
68319;SDS011;55168;51.120;17.024;2024-02-14T00:39:00;35.1;;;22.8;;
68319;SDS011;55168;51.120;17.024;2024-02-14T00:40:00;35.1;;;22.8;;
68319;SDS011;55168;51.120;17.024;2024-02-14T00:41:00;35.1;;;22.8;;
68319;SDS011;55168;51.120;17.024;2024-02-14T00:42:00;33.6;;;22.1;;
68319;SDS011;55168;51.120;17.024;2024-02-14T00:43:00;33.6;;;22.1;;
68319;SDS011;55168;51.120;17.024;2024-02-14T00:44:01;33.6;;;22.1;;
68319;SDS011;55168;51.120;17.024;2024-02-14T00:45:00;33.6;;;22.1;;
68319;SDS011;55168;51.120;17.024;2024-02-14T00:46:00;33.6;;;22.1;;
68319;SDS011;55168;51.120;17.024;2024-02-14T00:47:00;35.8;;;24.4;;
68319;SDS011;55168;51.120;17.024;2024-02-14T00:48:01;35.8;;;24.4;;
68319;SDS011;55168;51.120;17.024;2024-02-14T00:49:00;35.8;;;24.4;;
68319;SDS011;55168;51.120;17.024;2024-02-14T00:50:00;35.8;;;24.4;;
68319;SDS011;55168;51.120;17.024;2024-02-14T00:51:00;35.8;;;24.4;;
68319;SDS011;55168;51.120;17.024;2024-02-14T00:52:00;40.2;;;27.2;;
68319;SDS011;55168;51.120;17.024;2024-02-14T00:53:00;40.2;;;27.2;;
68319;SDS011;55168;51.120;17.024;2024-02-14T00:54:00;40.2;;;27.2;;
68319;SDS011;55168;51.120;17.024;2024-02-14T00:55:00;40.2;;;27.2;;
68319;SDS011;55168;51.120;17.024;2024-02-14T00:56:00;40.2;;;27.2;;
68319;SDS011;55168;51.120;17.024;2024-02-14T00:57:00;41.3;;;27.6;;
68319;SDS011;55168;51.120;17.024;2024-02-14T00:58:00;41.3;;;27.6;;
68319;SDS011;55168;51.120;17.024;2024-02-14T00:59:00;41.3;;;27.6;;
68319;SDS011;55168;51.120;17.024;2024-02-14T01:00:00;41.3;;;27.6;;
68319;SDS011;55168;51.120;17.024;2024-02-14T01:01:00;41.3;;;27.6;;
68319;SDS011;55168;51.120;17.024;2024-02-14T01:02:00;41.8;;;28.6;;
68319;SDS011;55168;51.120;17.024;2024-02-14T01:03:00;41.8;;;28.6;;
68319;SDS011;55168;51.120;17.024;2024-02-14T01:04:00;41.8;;;28.6;;
68319;SDS011;55168;51.120;17.024;2024-02-14T01:05:00;41.8;;;28.6;;
68319;SDS011;55168;51.120;17.024;2024-02-14T01:06:00;41.8;;;28.6;;
68319;SDS011;55168;51.120;17.024;2024-02-14T01:07:00;47.5;;;30.6;;
68319;SDS011;55168;51.120;17.024;2024-02-14T01:08:00;47.5;;;30.6;;
68319;SDS011;55168;51.120;17.024;2024-02-14T01:09:00;47.5;;;30.6;;
68319;SDS011;55168;51.120;17.024;2024-02-14T01:10:00;47.5;;;30.6;;
68319;SDS011;55168;51.120;17.024;2024-02-14T01:11:00;47.5;;;30.6;;
68319;SDS011;55168;51.120;17.024;2024-02-14T01:12:00;46.0;;;31.6;;
68319;SDS011;55168;51.120;17.024;2024-02-14T01:13:00;46.0;;;31.6;;
68319;SDS011;55168;51.120;17.024;2024-02-14T01:14:00;46.0;;;31.6;;
68319;SDS011;55168;51.120;17.024;2024-02-14T01:15:00;46.0;;;31.6;;
68319;SDS011;55168;51.120;17.024;2024-02-14T01:16:00;46.0;;;31.6;;
68319;SDS011;55168;51.120;17.024;2024-02-14T01:17:00;47.1;;;30.8;;
68319;SDS011;55168;51.120;17.024;2024-02-14T01:18:00;47.1;;;30.8;;
68319;SDS011;55168;51.120;17.024;2024-02-14T01:19:00;47.1;;;30.8;;
68319;SDS011;55168;51.120;17.024;2024-02-14T01:20:00;47.1;;;30.8;;
68319;SDS011;55168;51.120;17.024;2024-02-14T01:21:00;47.1;;;30.8;;
68319;SDS011;55168;51.120;17.024;2024-02-14T01:22:00;52.8;;;33.6;;
68319;SDS011;55168;51.120;17.024;2024-02-14T01:23:00;52.8;;;33.6;;
68319;SDS011;55168;51.120;17.024;2024-02-14T01:24:00;52.8;;;33.6;;
68319;SDS011;55168;51.120;17.024;2024-02-14T01:25:00;52.8;;;33.6;;
68319;SDS011;55168;51.120;17.024;2024-02-14T01:26:00;52.8;;;33.6;;
68319;SDS011;55168;51.120;17.024;2024-02-14T01:27:00;50.5;;;33.2;;
68319;SDS011;55168;51.120;17.024;2024-02-14T01:28:00;50.5;;;33.2;;
68319;SDS011;55168;51.120;17.024;2024-02-14T01:29:00;50.5;;;33.2;;
68319;SDS011;55168;51.120;17.024;2024-02-14T01:30:00;50.5;;;33.2;;
68319;SDS011;55168;51.120;17.024;2024-02-14T01:31:00;50.5;;;33.2;;
68319;SDS011;55168;51.120;17.024;2024-02-14T01:32:00;60.5;;;38.2;;
68319;SDS011;55168;51.120;17.024;2024-02-14T01:33:01;60.5;;;38.2;;
68319;SDS011;55168;51.120;17.024;2024-02-14T01:34:00;60.5;;;38.2;;
68319;SDS011;55168;51.120;17.024;2024-02-14T01:35:00;60.5;;;38.2;;
68319;SDS011;55168;51.120;17.024;2024-02-14T01:36:00;60.5;;;38.2;;
68319;SDS011;55168;51.120;17.024;2024-02-14T01:37:00;55.0;;;34.8;;
68319;SDS011;55168;51.120;17.024;2024-02-14T01:38:00;55.0;;;34.8;;
68319;SDS011;55168;51.120;17.024;2024-02-14T01:39:00;55.0;;;34.8;;
68319;SDS011;55168;51.120;17.024;2024-02-14T01:40:00;55.0;;;34.8;;
68319;SDS011;55168;51.120;17.024;2024-02-14T01:41:00;55.0;;;34.8;;
68319;SDS011;55168;51.120;17.024;2024-02-14T01:42:00;52.9;;;34.5;;
68319;SDS011;55168;51.120;17.024;2024-02-14T01:43:00;52.9;;;34.5;;
68319;SDS011;55168;51.120;17.024;2024-02-14T01:44:00;52.9;;;34.5;;
68319;SDS011;55168;51.120;17.024;2024-02-14T01:45:00;52.9;;;34.5;;
68319;SDS011;55168;51.120;17.024;2024-02-14T01:46:05;52.9;;;34.5;;
68319;SDS011;55168;51.120;17.024;2024-02-14T01:47:00;57.5;;;36.9;;
68319;SDS011;55168;51.120;17.024;2024-02-14T01:48:00;57.5;;;36.9;;
68319;SDS011;55168;51.120;17.024;2024-02-14T01:49:00;57.5;;;36.9;;
68319;SDS011;55168;51.120;17.024;2024-02-14T01:50:00;57.5;;;36.9;;
68319;SDS011;55168;51.120;17.024;2024-02-14T01:51:01;57.5;;;36.9;;
68319;SDS011;55168;51.120;17.024;2024-02-14T01:52:02;51.7;;;32.6;;
68319;SDS011;55168;51.120;17.024;2024-02-14T01:53:01;51.7;;;32.6;;
68319;SDS011;55168;51.120;17.024;2024-02-14T01:54:00;51.7;;;32.6;;
68319;SDS011;55168;51.120;17.024;2024-02-14T01:55:01;51.7;;;32.6;;
68319;SDS011;55168;51.120;17.024;2024-02-14T01:56:00;51.7;;;32.6;;
68319;SDS011;55168;51.120;17.024;2024-02-14T01:57:00;55.7;;;34.5;;
68319;SDS011;55168;51.120;17.024;2024-02-14T01:58:00;55.7;;;34.5;;
68319;SDS011;55168;51.120;17.024;2024-02-14T01:59:00;55.7;;;34.5;;
68319;SDS011;55168;51.120;17.024;2024-02-14T02:00:02;55.7;;;34.5;;
68319;SDS011;55168;51.120;17.024;2024-02-14T02:01:00;55.7;;;34.5;;
68319;SDS011;55168;51.120;17.024;2024-02-14T02:02:00;55.0;;;34.0;;
68319;SDS011;55168;51.120;17.024;2024-02-14T02:03:00;55.0;;;34.0;;
68319;SDS011;55168;51.120;17.024;2024-02-14T02:04:01;55.0;;;34.0;;
68319;SDS011;55168;51.120;17.024;2024-02-14T02:05:00;55.0;;;34.0;;
68319;SDS011;55168;51.120;17.024;2024-02-14T02:06:00;55.0;;;34.0;;
68319;SDS011;55168;51.120;17.024;2024-02-14T02:07:00;47.6;;;31.1;;
68319;SDS011;55168;51.120;17.024;2024-02-14T02:08:00;47.6;;;31.1;;
68319;SDS011;55168;51.120;17.024;2024-02-14T02:09:00;47.6;;;31.1;;
68319;SDS011;55168;51.120;17.024;2024-02-14T02:10:00;47.6;;;31.1;;
68319;SDS011;55168;51.120;17.024;2024-02-14T02:11:00;47.6;;;31.1;;
68319;SDS011;55168;51.120;17.024;2024-02-14T02:12:00;38.5;;;27.0;;
68319;SDS011;55168;51.120;17.024;2024-02-14T02:13:00;38.5;;;27.0;;
68319;SDS011;55168;51.120;17.024;2024-02-14T02:14:00;38.5;;;27.0;;
68319;SDS011;55168;51.120;17.024;2024-02-14T02:15:00;38.5;;;27.0;;
68319;SDS011;55168;51.120;17.024;2024-02-14T02:16:00;38.5;;;27.0;;
68319;SDS011;55168;51.120;17.024;2024-02-14T02:17:00;37.8;;;25.7;;
68319;SDS011;55168;51.120;17.024;2024-02-14T02:18:02;37.8;;;25.7;;
68319;SDS011;55168;51.120;17.024;2024-02-14T02:19:00;37.8;;;25.7;;
68319;SDS011;55168;51.120;17.024;2024-02-14T02:20:00;37.8;;;25.7;;
68319;SDS011;55168;51.120;17.024;2024-02-14T02:21:00;37.8;;;25.7;;
68319;SDS011;55168;51.120;17.024;2024-02-14T02:22:00;37.1;;;25.7;;
68319;SDS011;55168;51.120;17.024;2024-02-14T02:23:00;37.1;;;25.7;;
68319;SDS011;55168;51.120;17.024;2024-02-14T02:24:00;37.1;;;25.7;;
68319;SDS011;55168;51.120;17.024;2024-02-14T02:25:00;37.1;;;25.7;;
68319;SDS011;55168;51.120;17.024;2024-02-14T02:26:00;37.1;;;25.7;;
68319;SDS011;55168;51.120;17.024;2024-02-14T02:27:00;40.6;;;27.0;;
68319;SDS011;55168;51.120;17.024;2024-02-14T02:28:00;40.6;;;27.0;;
68319;SDS011;55168;51.120;17.024;2024-02-14T02:29:00;40.6;;;27.0;;
68319;SDS011;55168;51.120;17.024;2024-02-14T02:30:00;40.6;;;27.0;;
68319;SDS011;55168;51.120;17.024;2024-02-14T02:31:00;40.6;;;27.0;;
68319;SDS011;55168;51.120;17.024;2024-02-14T02:32:00;41.6;;;27.0;;
68319;SDS011;55168;51.120;17.024;2024-02-14T02:33:00;41.6;;;27.0;;
68319;SDS011;55168;51.120;17.024;2024-02-14T02:34:00;41.6;;;27.0;;
68319;SDS011;55168;51.120;17.024;2024-02-14T02:35:00;41.6;;;27.0;;
68319;SDS011;55168;51.120;17.024;2024-02-14T02:36:00;41.6;;;27.0;;
68319;SDS011;55168;51.120;17.024;2024-02-14T02:37:00;42.2;;;28.2;;
68319;SDS011;55168;51.120;17.024;2024-02-14T02:38:00;42.2;;;28.2;;
68319;SDS011;55168;51.120;17.024;2024-02-14T02:39:00;42.2;;;28.2;;
68319;SDS011;55168;51.120;17.024;2024-02-14T02:40:00;42.2;;;28.2;;
68319;SDS011;55168;51.120;17.024;2024-02-14T02:41:00;42.2;;;28.2;;
68319;SDS011;55168;51.120;17.024;2024-02-14T02:42:00;48.0;;;31.1;;
68319;SDS011;55168;51.120;17.024;2024-02-14T02:43:00;48.0;;;31.1;;
68319;SDS011;55168;51.120;17.024;2024-02-14T02:44:00;48.0;;;31.1;;
68319;SDS011;55168;51.120;17.024;2024-02-14T02:45:00;48.0;;;31.1;;
68319;SDS011;55168;51.120;17.024;2024-02-14T02:46:00;48.0;;;31.1;;
68319;SDS011;55168;51.120;17.024;2024-02-14T02:47:00;47.1;;;30.9;;
68319;SDS011;55168;51.120;17.024;2024-02-14T02:48:00;47.1;;;30.9;;
68319;SDS011;55168;51.120;17.024;2024-02-14T02:49:00;47.1;;;30.9;;
68319;SDS011;55168;51.120;17.024;2024-02-14T02:50:00;47.1;;;30.9;;
68319;SDS011;55168;51.120;17.024;2024-02-14T02:51:00;47.1;;;30.9;;
68319;SDS011;55168;51.120;17.024;2024-02-14T02:52:00;44.7;;;29.7;;
68319;SDS011;55168;51.120;17.024;2024-02-14T02:53:00;44.7;;;29.7;;
68319;SDS011;55168;51.120;17.024;2024-02-14T02:54:00;44.7;;;29.7;;
68319;SDS011;55168;51.120;17.024;2024-02-14T02:55:00;44.7;;;29.7;;
68319;SDS011;55168;51.120;17.024;2024-02-14T02:56:00;44.7;;;29.7;;
68319;SDS011;55168;51.120;17.024;2024-02-14T02:57:00;45.6;;;29.9;;
68319;SDS011;55168;51.120;17.024;2024-02-14T02:58:00;45.6;;;29.9;;
68319;SDS011;55168;51.120;17.024;2024-02-14T02:59:00;45.6;;;29.9;;
68319;SDS011;55168;51.120;17.024;2024-02-14T03:00:00;45.6;;;29.9;;
68319;SDS011;55168;51.120;17.024;2024-02-14T03:01:00;45.6;;;29.9;;
68319;SDS011;55168;51.120;17.024;2024-02-14T03:02:00;43.9;;;30.3;;
68319;SDS011;55168;51.120;17.024;2024-02-14T03:03:00;43.9;;;30.3;;
68319;SDS011;55168;51.120;17.024;2024-02-14T03:04:00;43.9;;;30.3;;
68319;SDS011;55168;51.120;17.024;2024-02-14T03:05:00;43.9;;;30.3;;
68319;SDS011;55168;51.120;17.024;2024-02-14T03:06:00;43.9;;;30.3;;
68319;SDS011;55168;51.120;17.024;2024-02-14T03:07:00;52.5;;;33.9;;
68319;SDS011;55168;51.120;17.024;2024-02-14T03:08:00;52.5;;;33.9;;
68319;SDS011;55168;51.120;17.024;2024-02-14T03:09:00;52.5;;;33.9;;
68319;SDS011;55168;51.120;17.024;2024-02-14T03:10:00;52.5;;;33.9;;
68319;SDS011;55168;51.120;17.024;2024-02-14T03:11:07;52.5;;;33.9;;
68319;SDS011;55168;51.120;17.024;2024-02-14T03:12:00;54.9;;;36.1;;
68319;SDS011;55168;51.120;17.024;2024-02-14T03:13:00;54.9;;;36.1;;
68319;SDS011;55168;51.120;17.024;2024-02-14T03:14:00;54.9;;;36.1;;
68319;SDS011;55168;51.120;17.024;2024-02-14T03:15:03;54.9;;;36.1;;
68319;SDS011;55168;51.120;17.024;2024-02-14T03:16:00;54.9;;;36.1;;
68319;SDS011;55168;51.120;17.024;2024-02-14T03:17:00;52.4;;;33.7;;
68319;SDS011;55168;51.120;17.024;2024-02-14T03:18:00;52.4;;;33.7;;
68319;SDS011;55168;51.120;17.024;2024-02-14T03:19:00;52.4;;;33.7;;
68319;SDS011;55168;51.120;17.024;2024-02-14T03:20:00;52.4;;;33.7;;
68319;SDS011;55168;51.120;17.024;2024-02-14T03:21:00;52.4;;;33.7;;
68319;SDS011;55168;51.120;17.024;2024-02-14T03:22:00;57.0;;;36.9;;
68319;SDS011;55168;51.120;17.024;2024-02-14T03:23:00;57.0;;;36.9;;
68319;SDS011;55168;51.120;17.024;2024-02-14T03:24:00;57.0;;;36.9;;
68319;SDS011;55168;51.120;17.024;2024-02-14T03:25:00;57.0;;;36.9;;
68319;SDS011;55168;51.120;17.024;2024-02-14T03:26:00;57.0;;;36.9;;
68319;SDS011;55168;51.120;17.024;2024-02-14T03:27:00;55.8;;;35.7;;
68319;SDS011;55168;51.120;17.024;2024-02-14T03:28:00;55.8;;;35.7;;
68319;SDS011;55168;51.120;17.024;2024-02-14T03:29:00;55.8;;;35.7;;
68319;SDS011;55168;51.120;17.024;2024-02-14T03:30:00;55.8;;;35.7;;
68319;SDS011;55168;51.120;17.024;2024-02-14T03:31:00;55.8;;;35.7;;
68319;SDS011;55168;51.120;17.024;2024-02-14T03:32:00;53.3;;;35.0;;
68319;SDS011;55168;51.120;17.024;2024-02-14T03:33:00;53.3;;;35.0;;
68319;SDS011;55168;51.120;17.024;2024-02-14T03:34:00;53.3;;;35.0;;
68319;SDS011;55168;51.120;17.024;2024-02-14T03:35:00;53.3;;;35.0;;
68319;SDS011;55168;51.120;17.024;2024-02-14T03:36:00;53.3;;;35.0;;
68319;SDS011;55168;51.120;17.024;2024-02-14T03:37:00;56.5;;;36.7;;
68319;SDS011;55168;51.120;17.024;2024-02-14T03:38:01;56.5;;;36.7;;
68319;SDS011;55168;51.120;17.024;2024-02-14T03:39:00;56.5;;;36.7;;
68319;SDS011;55168;51.120;17.024;2024-02-14T03:40:00;56.5;;;36.7;;
68319;SDS011;55168;51.120;17.024;2024-02-14T03:41:00;56.5;;;36.7;;
68319;SDS011;55168;51.120;17.024;2024-02-14T03:42:00;54.2;;;35.5;;
68319;SDS011;55168;51.120;17.024;2024-02-14T03:43:00;54.2;;;35.5;;
68319;SDS011;55168;51.120;17.024;2024-02-14T03:44:00;54.2;;;35.5;;
68319;SDS011;55168;51.120;17.024;2024-02-14T03:45:00;54.2;;;35.5;;
68319;SDS011;55168;51.120;17.024;2024-02-14T03:46:00;54.2;;;35.5;;
68319;SDS011;55168;51.120;17.024;2024-02-14T03:47:00;51.7;;;33.7;;
68319;SDS011;55168;51.120;17.024;2024-02-14T03:48:00;51.7;;;33.7;;
68319;SDS011;55168;51.120;17.024;2024-02-14T03:49:00;51.7;;;33.7;;
68319;SDS011;55168;51.120;17.024;2024-02-14T03:50:00;51.7;;;33.7;;
68319;SDS011;55168;51.120;17.024;2024-02-14T03:51:00;51.7;;;33.7;;
68319;SDS011;55168;51.120;17.024;2024-02-14T03:52:00;45.5;;;30.8;;
68319;SDS011;55168;51.120;17.024;2024-02-14T03:53:00;45.5;;;30.8;;
68319;SDS011;55168;51.120;17.024;2024-02-14T03:54:00;45.5;;;30.8;;
68319;SDS011;55168;51.120;17.024;2024-02-14T03:55:00;45.5;;;30.8;;
68319;SDS011;55168;51.120;17.024;2024-02-14T03:56:00;45.5;;;30.8;;
68319;SDS011;55168;51.120;17.024;2024-02-14T03:57:00;42.7;;;28.1;;
68319;SDS011;55168;51.120;17.024;2024-02-14T03:58:00;42.7;;;28.1;;
68319;SDS011;55168;51.120;17.024;2024-02-14T03:59:00;42.7;;;28.1;;
68319;SDS011;55168;51.120;17.024;2024-02-14T04:00:00;42.7;;;28.1;;
68319;SDS011;55168;51.120;17.024;2024-02-14T04:01:00;42.7;;;28.1;;
68319;SDS011;55168;51.120;17.024;2024-02-14T04:02:00;39.1;;;27.4;;
68319;SDS011;55168;51.120;17.024;2024-02-14T04:03:00;39.1;;;27.4;;
68319;SDS011;55168;51.120;17.024;2024-02-14T04:04:00;39.1;;;27.4;;
68319;SDS011;55168;51.120;17.024;2024-02-14T04:05:00;39.1;;;27.4;;
68319;SDS011;55168;51.120;17.024;2024-02-14T04:06:00;39.1;;;27.4;;
68319;SDS011;55168;51.120;17.024;2024-02-14T04:07:00;37.5;;;24.8;;
68319;SDS011;55168;51.120;17.024;2024-02-14T04:08:00;37.5;;;24.8;;
68319;SDS011;55168;51.120;17.024;2024-02-14T04:09:00;37.5;;;24.8;;
68319;SDS011;55168;51.120;17.024;2024-02-14T04:10:00;37.5;;;24.8;;
68319;SDS011;55168;51.120;17.024;2024-02-14T04:11:00;37.5;;;24.8;;
68319;SDS011;55168;51.120;17.024;2024-02-14T04:12:00;44.9;;;29.8;;
68319;SDS011;55168;51.120;17.024;2024-02-14T04:13:00;44.9;;;29.8;;
68319;SDS011;55168;51.120;17.024;2024-02-14T04:14:00;44.9;;;29.8;;
68319;SDS011;55168;51.120;17.024;2024-02-14T04:15:00;44.9;;;29.8;;
68319;SDS011;55168;51.120;17.024;2024-02-14T04:16:00;44.9;;;29.8;;
68319;SDS011;55168;51.120;17.024;2024-02-14T04:17:00;56.8;;;37.0;;
68319;SDS011;55168;51.120;17.024;2024-02-14T04:18:00;56.8;;;37.0;;
68319;SDS011;55168;51.120;17.024;2024-02-14T04:19:00;56.8;;;37.0;;
68319;SDS011;55168;51.120;17.024;2024-02-14T04:20:00;56.8;;;37.0;;
68319;SDS011;55168;51.120;17.024;2024-02-14T04:21:00;56.8;;;37.0;;
68319;SDS011;55168;51.120;17.024;2024-02-14T04:22:00;63.6;;;38.8;;
68319;SDS011;55168;51.120;17.024;2024-02-14T04:23:00;63.6;;;38.8;;
68319;SDS011;55168;51.120;17.024;2024-02-14T04:24:00;63.6;;;38.8;;
68319;SDS011;55168;51.120;17.024;2024-02-14T04:25:00;63.6;;;38.8;;
68319;SDS011;55168;51.120;17.024;2024-02-14T04:26:00;63.6;;;38.8;;
68319;SDS011;55168;51.120;17.024;2024-02-14T04:27:00;63.5;;;38.6;;
68319;SDS011;55168;51.120;17.024;2024-02-14T04:28:00;63.5;;;38.6;;
68319;SDS011;55168;51.120;17.024;2024-02-14T04:29:00;63.5;;;38.6;;
68319;SDS011;55168;51.120;17.024;2024-02-14T04:30:01;63.5;;;38.6;;
68319;SDS011;55168;51.120;17.024;2024-02-14T04:31:00;63.5;;;38.6;;
68319;SDS011;55168;51.120;17.024;2024-02-14T04:32:00;59.1;;;38.4;;
68319;SDS011;55168;51.120;17.024;2024-02-14T04:33:00;59.1;;;38.4;;
68319;SDS011;55168;51.120;17.024;2024-02-14T04:34:00;59.1;;;38.4;;
68319;SDS011;55168;51.120;17.024;2024-02-14T04:35:00;59.1;;;38.4;;
68319;SDS011;55168;51.120;17.024;2024-02-14T04:36:00;59.4;;;38.3;;
68319;SDS011;55168;51.120;17.024;2024-02-14T04:37:00;59.4;;;38.3;;
68319;SDS011;55168;51.120;17.024;2024-02-14T04:38:00;59.4;;;38.3;;
68319;SDS011;55168;51.120;17.024;2024-02-14T04:39:00;59.4;;;38.3;;
68319;SDS011;55168;51.120;17.024;2024-02-14T04:40:00;59.4;;;38.3;;
68319;SDS011;55168;51.120;17.024;2024-02-14T04:41:00;60.8;;;38.3;;
68319;SDS011;55168;51.120;17.024;2024-02-14T04:42:00;60.8;;;38.3;;
68319;SDS011;55168;51.120;17.024;2024-02-14T04:43:00;60.8;;;38.3;;
68319;SDS011;55168;51.120;17.024;2024-02-14T04:44:00;60.8;;;38.3;;
68319;SDS011;55168;51.120;17.024;2024-02-14T04:45:00;60.8;;;38.3;;
68319;SDS011;55168;51.120;17.024;2024-02-14T04:46:00;55.1;;;36.3;;
68319;SDS011;55168;51.120;17.024;2024-02-14T04:47:00;55.1;;;36.3;;
68319;SDS011;55168;51.120;17.024;2024-02-14T04:48:00;55.1;;;36.3;;
68319;SDS011;55168;51.120;17.024;2024-02-14T04:49:01;55.1;;;36.3;;
68319;SDS011;55168;51.120;17.024;2024-02-14T04:50:00;55.1;;;36.3;;
68319;SDS011;55168;51.120;17.024;2024-02-14T04:51:00;61.0;;;37.9;;
68319;SDS011;55168;51.120;17.024;2024-02-14T04:52:00;61.0;;;37.9;;
68319;SDS011;55168;51.120;17.024;2024-02-14T04:53:00;61.0;;;37.9;;
68319;SDS011;55168;51.120;17.024;2024-02-14T04:54:00;61.0;;;37.9;;
68319;SDS011;55168;51.120;17.024;2024-02-14T04:55:00;61.0;;;37.9;;
68319;SDS011;55168;51.120;17.024;2024-02-14T04:56:00;59.0;;;36.4;;
68319;SDS011;55168;51.120;17.024;2024-02-14T04:57:00;59.0;;;36.4;;
68319;SDS011;55168;51.120;17.024;2024-02-14T04:58:00;59.0;;;36.4;;
68319;SDS011;55168;51.120;17.024;2024-02-14T04:59:00;59.0;;;36.4;;
68319;SDS011;55168;51.120;17.024;2024-02-14T05:00:00;59.0;;;36.4;;
68319;SDS011;55168;51.120;17.024;2024-02-14T05:01:00;54.4;;;36.1;;
68319;SDS011;55168;51.120;17.024;2024-02-14T05:02:00;54.4;;;36.1;;
68319;SDS011;55168;51.120;17.024;2024-02-14T05:03:00;54.4;;;36.1;;
68319;SDS011;55168;51.120;17.024;2024-02-14T05:04:00;54.4;;;36.1;;
68319;SDS011;55168;51.120;17.024;2024-02-14T05:05:00;54.4;;;36.1;;
68319;SDS011;55168;51.120;17.024;2024-02-14T05:06:00;55.4;;;34.7;;
68319;SDS011;55168;51.120;17.024;2024-02-14T05:07:00;55.4;;;34.7;;
68319;SDS011;55168;51.120;17.024;2024-02-14T05:08:00;55.4;;;34.7;;
68319;SDS011;55168;51.120;17.024;2024-02-14T05:09:00;55.4;;;34.7;;
68319;SDS011;55168;51.120;17.024;2024-02-14T05:10:00;55.4;;;34.7;;
68319;SDS011;55168;51.120;17.024;2024-02-14T05:11:00;56.0;;;35.1;;
68319;SDS011;55168;51.120;17.024;2024-02-14T05:12:00;56.0;;;35.1;;
68319;SDS011;55168;51.120;17.024;2024-02-14T05:13:00;56.0;;;35.1;;
68319;SDS011;55168;51.120;17.024;2024-02-14T05:14:00;56.0;;;35.1;;
68319;SDS011;55168;51.120;17.024;2024-02-14T05:15:00;56.0;;;35.1;;
68319;SDS011;55168;51.120;17.024;2024-02-14T05:16:03;50.4;;;33.9;;
68319;SDS011;55168;51.120;17.024;2024-02-14T05:17:00;50.4;;;33.9;;
68319;SDS011;55168;51.120;17.024;2024-02-14T05:18:00;50.4;;;33.9;;
68319;SDS011;55168;51.120;17.024;2024-02-14T05:19:00;50.4;;;33.9;;
68319;SDS011;55168;51.120;17.024;2024-02-14T05:20:00;50.4;;;33.9;;
68319;SDS011;55168;51.120;17.024;2024-02-14T05:21:00;51.7;;;34.8;;
68319;SDS011;55168;51.120;17.024;2024-02-14T05:22:00;51.7;;;34.8;;
68319;SDS011;55168;51.120;17.024;2024-02-14T05:23:00;51.7;;;34.8;;
68319;SDS011;55168;51.120;17.024;2024-02-14T05:24:00;51.7;;;34.8;;
68319;SDS011;55168;51.120;17.024;2024-02-14T05:25:00;51.7;;;34.8;;
68319;SDS011;55168;51.120;17.024;2024-02-14T05:26:00;49.4;;;32.3;;
68319;SDS011;55168;51.120;17.024;2024-02-14T05:27:00;49.4;;;32.3;;
68319;SDS011;55168;51.120;17.024;2024-02-14T05:28:00;49.4;;;32.3;;
68319;SDS011;55168;51.120;17.024;2024-02-14T05:29:00;49.4;;;32.3;;
68319;SDS011;55168;51.120;17.024;2024-02-14T05:30:00;49.4;;;32.3;;
68319;SDS011;55168;51.120;17.024;2024-02-14T05:31:00;47.0;;;33.5;;
68319;SDS011;55168;51.120;17.024;2024-02-14T05:32:00;47.0;;;33.5;;
68319;SDS011;55168;51.120;17.024;2024-02-14T05:33:00;47.0;;;33.5;;
68319;SDS011;55168;51.120;17.024;2024-02-14T05:34:00;47.0;;;33.5;;
68319;SDS011;55168;51.120;17.024;2024-02-14T05:35:00;47.0;;;33.5;;
68319;SDS011;55168;51.120;17.024;2024-02-14T05:36:00;53.1;;;33.5;;
68319;SDS011;55168;51.120;17.024;2024-02-14T05:37:00;53.1;;;33.5;;
68319;SDS011;55168;51.120;17.024;2024-02-14T05:38:00;53.1;;;33.5;;
68319;SDS011;55168;51.120;17.024;2024-02-14T05:39:00;53.1;;;33.5;;
68319;SDS011;55168;51.120;17.024;2024-02-14T05:40:00;53.1;;;33.5;;
68319;SDS011;55168;51.120;17.024;2024-02-14T05:41:00;51.8;;;33.9;;
68319;SDS011;55168;51.120;17.024;2024-02-14T05:42:00;51.8;;;33.9;;
68319;SDS011;55168;51.120;17.024;2024-02-14T05:43:00;51.8;;;33.9;;
68319;SDS011;55168;51.120;17.024;2024-02-14T05:44:00;51.8;;;33.9;;
68319;SDS011;55168;51.120;17.024;2024-02-14T05:45:00;51.8;;;33.9;;
68319;SDS011;55168;51.120;17.024;2024-02-14T05:46:00;47.6;;;31.4;;
68319;SDS011;55168;51.120;17.024;2024-02-14T05:47:00;47.6;;;31.4;;
68319;SDS011;55168;51.120;17.024;2024-02-14T05:48:00;47.6;;;31.4;;
68319;SDS011;55168;51.120;17.024;2024-02-14T05:49:00;47.6;;;31.4;;
68319;SDS011;55168;51.120;17.024;2024-02-14T05:50:00;47.6;;;31.4;;
68319;SDS011;55168;51.120;17.024;2024-02-14T05:51:00;48.4;;;30.5;;
68319;SDS011;55168;51.120;17.024;2024-02-14T05:52:00;48.4;;;30.5;;
68319;SDS011;55168;51.120;17.024;2024-02-14T05:53:00;48.4;;;30.5;;
68319;SDS011;55168;51.120;17.024;2024-02-14T05:54:00;48.4;;;30.5;;
68319;SDS011;55168;51.120;17.024;2024-02-14T05:55:00;48.4;;;30.5;;